createdAt,value
2023-01-13T00:00:07.568Z,2.55
2023-01-13T00:02:44.334Z,1.80
2023-01-13T00:05:19.200Z,1.95
2023-01-13T00:07:51.208Z,1.33
2023-01-13T00:10:19.746Z,1.75
2023-01-13T00:12:51.480Z,1.65
2023-01-13T00:15:20.105Z,1.57
2023-01-13T00:17:49.015Z,0.82
2023-01-13T00:20:18.250Z,2.83
2023-01-13T00:22:51.148Z,2.67
2023-01-13T00:25:19.636Z,2.53
2023-01-13T00:27:47.956Z,2.85
2023-01-13T00:30:30.357Z,3.50
2023-01-13T00:32:58.795Z,2.33
2023-01-13T00:35:27.257Z,3.08
2023-01-13T00:38:03.800Z,6.53
2023-01-13T00:40:42.375Z,3.70
2023-01-13T00:43:25.154Z,3.35
2023-01-13T00:45:53.597Z,2.42
2023-01-13T00:48:23.729Z,4.25
2023-01-13T00:50:57.488Z,5.82
2023-01-13T00:53:28.475Z,3.10
2023-01-13T00:56:04.024Z,7.07
2023-01-13T00:58:34.528Z,4.13
2023-01-13T01:01:04.421Z,2.78
2023-01-13T01:03:33.354Z,3.13
2023-01-13T01:06:07.601Z,6.53
2023-01-13T01:08:40.336Z,7.20
2023-01-13T01:11:12.187Z,5.75
2023-01-13T01:13:41.345Z,5.30
2023-01-13T01:16:12.701Z,5.32
2023-01-13T01:18:45.010Z,7.18
2023-01-13T01:21:14.184Z,3.53
2023-01-13T01:23:44.441Z,4.22
2023-01-13T01:26:16.234Z,5.20
2023-01-13T01:28:46.772Z,5.40
2023-01-13T01:31:18.446Z,3.97
2023-01-13T01:33:47.542Z,5.90
2023-01-13T01:36:18.215Z,3.63
2023-01-13T01:38:48.615Z,6.25
2023-01-13T01:41:19.722Z,6.55
2023-01-13T01:44:02.961Z,4.97
2023-01-13T01:46:35.167Z,7.72
2023-01-13T01:49:14.269Z,4.72
2023-01-13T01:51:47.359Z,4.18
2023-01-13T01:54:23.647Z,6.82
2023-01-13T01:56:53.073Z,8.07
2023-01-13T01:59:21.396Z,5.20
2023-01-13T02:01:50.302Z,5.72
2023-01-13T02:04:25.172Z,2.60
2023-01-13T02:06:54.683Z,4.63
2023-01-13T02:09:27.628Z,3.90
2023-01-13T02:12:13.279Z,3.72
2023-01-13T02:14:43.175Z,4.10
2023-01-13T02:17:31.730Z,5.63
2023-01-13T02:20:29.763Z,3.95
2023-01-13T02:24:22.588Z,7.22
2023-01-13T02:27:48.993Z,8.65
2023-01-13T02:30:49.072Z,5.97
2023-01-13T02:33:40.263Z,8.07
2023-01-13T02:36:21.001Z,5.43
2023-01-13T02:38:57.688Z,5.63
2023-01-13T02:41:54.950Z,3.72
2023-01-13T02:44:29.813Z,6.50
2023-01-13T02:47:05.686Z,6.50
2023-01-13T02:49:39.776Z,7.22
2023-01-13T02:52:14.083Z,7.53
2023-01-13T02:54:50.283Z,7.32
2023-01-13T02:57:20.642Z,5.32
2023-01-13T02:59:50.304Z,5.03
2023-01-13T03:02:22.556Z,8.85
2023-01-13T03:04:55.364Z,6.70
2023-01-13T03:10:37.126Z,6.45
2023-01-13T03:13:22.040Z,16.75
2023-01-13T03:16:01.479Z,10.40
2023-01-13T03:18:44.900Z,10.20
2023-01-13T03:21:22.493Z,8.32
2023-01-13T03:23:57.976Z,13.48
2023-01-13T03:26:34.165Z,10.00
2023-01-13T03:29:15.391Z,9.45
2023-01-13T03:31:56.679Z,10.77
2023-01-13T03:34:34.127Z,17.50
2023-01-13T03:37:08.052Z,10.75
2023-01-13T03:39:41.561Z,10.45
2023-01-13T03:42:14.949Z,8.85
2023-01-13T03:44:48.802Z,12.27
2023-01-13T03:47:26.397Z,11.48
2023-01-13T03:50:01.350Z,20.75
2023-01-13T03:52:34.291Z,13.98
2023-01-13T03:55:08.575Z,13.25
2023-01-13T03:57:41.740Z,14.45
2023-01-13T04:00:14.445Z,17.48
2023-01-13T04:05:20.544Z,16.00
2023-01-13T04:07:57.369Z,16.88
2023-01-13T04:10:32.182Z,12.65
2023-01-13T04:13:04.883Z,15.70
2023-01-13T04:15:38.430Z,14.55
2023-01-13T04:18:19.286Z,17.02
2023-01-13T04:20:51.281Z,16.27
2023-01-13T04:23:23.598Z,18.25
2023-01-13T04:25:52.862Z,18.45
2023-01-13T04:28:22.326Z,20.90
2023-01-13T04:30:51.141Z,14.38
2023-01-13T04:33:20.660Z,13.27
2023-01-13T04:35:50.350Z,17.77
2023-01-13T04:38:21.554Z,16.10
2023-01-13T04:40:49.830Z,16.08
2023-01-13T04:43:18.225Z,13.30
2023-01-13T04:45:46.508Z,14.48
2023-01-13T04:48:14.758Z,15.68
2023-01-13T04:50:43.673Z,17.35
2023-01-13T04:53:13.208Z,18.00
2023-01-13T04:55:41.591Z,14.75
2023-01-13T04:58:12.098Z,15.65
2023-01-13T05:00:40.606Z,15.48
2023-01-13T05:03:08.918Z,15.50
2023-01-13T05:05:37.889Z,15.40
2023-01-13T05:08:06.732Z,13.98
2023-01-13T05:10:36.400Z,21.23
2023-01-13T05:13:22.596Z,11.85
2023-01-13T05:16:19.747Z,16.00
2023-01-13T05:18:48.007Z,13.70
2023-01-13T05:21:30.165Z,15.40
2023-01-13T05:24:15.948Z,16.85
2023-01-13T05:26:45.529Z,13.52
2023-01-13T05:29:13.739Z,11.90
2023-01-13T05:31:41.917Z,12.27
2023-01-13T05:34:10.090Z,11.48
2023-01-13T05:36:38.249Z,10.40
2023-01-13T05:39:06.431Z,14.82
2023-01-13T05:41:52.168Z,13.20
2023-01-13T05:44:21.710Z,18.67
2023-01-13T05:46:50.023Z,13.15
2023-01-13T05:49:18.277Z,14.32
2023-01-13T05:51:46.707Z,12.43
2023-01-13T05:54:17.666Z,11.07
2023-01-13T05:56:45.817Z,12.18
2023-01-13T05:59:14.121Z,8.82
2023-01-13T06:01:43.701Z,13.20
2023-01-13T06:04:11.889Z,7.57
2023-01-13T06:06:40.075Z,12.18
2023-01-13T06:09:08.391Z,11.20
2023-01-13T06:11:36.787Z,13.05
2023-01-13T06:14:04.983Z,14.70
2023-01-13T06:16:33.228Z,15.85
2023-01-13T06:19:02.849Z,11.73
2023-01-13T06:21:33.230Z,8.43
2023-01-13T06:24:01.656Z,10.43
2023-01-13T06:26:34.573Z,10.13
2023-01-13T06:29:02.922Z,15.63
2023-01-13T06:31:32.045Z,10.73
2023-01-13T06:34:08.462Z,7.97
2023-01-13T06:36:39.372Z,9.48
2023-01-13T06:39:09.552Z,7.13
2023-01-13T06:41:55.526Z,8.90
2023-01-13T06:44:25.485Z,8.18
2023-01-13T06:46:53.892Z,9.20
2023-01-13T06:49:23.471Z,7.13
2023-01-13T06:51:51.712Z,8.35
2023-01-13T06:54:19.919Z,7.93
2023-01-13T06:56:48.077Z,11.25
2023-01-13T06:59:16.362Z,10.48
2023-01-13T07:01:44.990Z,8.90
2023-01-13T07:04:13.673Z,12.93
2023-01-13T07:06:43.140Z,10.02
2023-01-13T07:09:11.752Z,11.55
2023-01-13T07:11:40.101Z,10.05
2023-01-13T07:14:26.117Z,7.25
2023-01-13T07:16:55.123Z,10.82
2023-01-13T07:19:24.229Z,6.45
2023-01-13T07:21:54.420Z,10.70
2023-01-13T07:24:23.434Z,11.35
2023-01-13T07:26:53.145Z,10.80
2023-01-13T07:29:21.542Z,11.38
2023-01-13T07:31:50.361Z,7.93
2023-01-13T07:34:18.790Z,11.52
2023-01-13T07:36:46.933Z,10.55
2023-01-13T07:39:16.462Z,11.95
2023-01-13T07:42:02.250Z,16.83
2023-01-13T07:44:30.465Z,11.95
2023-01-13T07:46:58.645Z,19.10
2023-01-13T07:49:26.908Z,16.25
2023-01-13T07:51:55.089Z,11.43
2023-01-13T07:54:39.129Z,12.35
2023-01-13T07:57:08.150Z,18.10
2023-01-13T07:59:37.022Z,16.70
2023-01-13T08:02:05.537Z,14.13
2023-01-13T08:04:34.737Z,19.65
2023-01-13T08:07:02.949Z,18.48
2023-01-13T08:09:35.074Z,19.42
2023-01-13T08:12:20.808Z,18.67
2023-01-13T08:14:50.135Z,21.42
2023-01-13T08:17:20.466Z,15.27
2023-01-13T08:19:48.869Z,20.23
2023-01-13T08:22:17.118Z,24.95
2023-01-13T08:24:46.693Z,25.88
2023-01-13T08:27:15.096Z,22.02
2023-01-13T08:29:43.321Z,32.58
2023-01-13T08:32:11.503Z,21.38
2023-01-13T08:34:39.771Z,21.00
2023-01-13T08:37:08.131Z,24.30
2023-01-13T08:39:36.468Z,23.60
2023-01-13T08:42:06.215Z,26.13
2023-01-13T08:44:34.764Z,22.90
2023-01-13T08:47:05.236Z,24.67
2023-01-13T08:49:33.538Z,18.95
2023-01-13T08:52:01.767Z,18.92
2023-01-13T08:54:30.069Z,14.95
2023-01-13T08:56:58.350Z,22.25
2023-01-13T08:59:28.058Z,22.98
2023-01-13T09:01:56.419Z,25.92
2023-01-13T09:04:27.641Z,23.17
2023-01-13T09:06:56.858Z,22.17
2023-01-13T09:09:27.687Z,28.08
2023-01-13T09:12:13.612Z,20.92
2023-01-13T09:14:43.361Z,25.67
2023-01-13T09:17:11.634Z,27.73
2023-01-13T09:19:39.820Z,24.45
2023-01-13T09:22:11.164Z,24.85
2023-01-13T09:24:39.491Z,26.08
2023-01-13T09:27:07.749Z,26.23
2023-01-13T09:29:35.910Z,33.33
2023-01-13T09:32:06.134Z,23.65
2023-01-13T09:34:52.274Z,22.33
2023-01-13T09:37:20.404Z,20.65
2023-01-13T09:39:48.643Z,22.13
2023-01-13T09:42:45.459Z,22.95
2023-01-13T09:45:18.596Z,22.02
2023-01-13T09:47:57.584Z,26.83
2023-01-13T09:50:49.308Z,22.40
2023-01-13T09:53:23.643Z,19.70
2023-01-13T09:55:52.819Z,26.50
2023-01-13T09:58:21.545Z,19.58
2023-01-13T10:01:06.101Z,25.60
2023-01-13T10:03:36.720Z,29.23
2023-01-13T10:06:14.684Z,23.50
2023-01-13T10:08:45.035Z,23.05
2023-01-13T10:11:37.739Z,21.98
2023-01-13T10:14:14.917Z,23.95
2023-01-13T10:16:51.540Z,21.30
2023-01-13T10:19:29.235Z,30.50
2023-01-13T10:22:25.425Z,20.67
2023-01-13T10:25:28.635Z,29.48
2023-01-13T10:30:40.119Z,23.60
2023-01-13T10:33:14.783Z,27.20
2023-01-13T10:36:01.838Z,26.15
2023-01-13T10:38:38.049Z,25.92
2023-01-13T10:41:18.025Z,26.83
2023-01-13T10:43:58.306Z,18.85
2023-01-13T10:46:26.637Z,24.73
2023-01-13T10:48:56.947Z,24.50
2023-01-13T10:51:29.758Z,26.83
2023-01-13T10:54:02.613Z,22.25
2023-01-13T10:56:34.011Z,23.80
2023-01-13T10:59:18.317Z,25.80
2023-01-13T11:02:01.197Z,24.25
2023-01-13T11:04:37.865Z,17.13
2023-01-13T11:07:21.599Z,30.17
2023-01-13T11:09:50.104Z,24.13
2023-01-13T11:12:33.580Z,21.77
2023-01-13T11:15:05.254Z,21.52
2023-01-13T11:17:40.399Z,22.05
2023-01-13T11:20:20.524Z,24.60
2023-01-13T11:22:52.940Z,22.52
2023-01-13T11:25:31.621Z,23.77
2023-01-13T11:28:07.035Z,25.63
2023-01-13T11:30:44.397Z,22.23
2023-01-13T11:33:30.527Z,26.05
2023-01-13T11:36:09.764Z,20.30
2023-01-13T11:38:50.532Z,25.33
2023-01-13T11:41:37.059Z,23.05
2023-01-13T11:44:18.767Z,14.80
2023-01-13T11:46:51.093Z,20.20
2023-01-13T11:49:27.151Z,20.40
2023-01-13T11:52:05.010Z,18.33
2023-01-13T11:55:04.286Z,24.25
2023-01-13T11:58:01.865Z,18.95
2023-01-13T12:00:51.542Z,22.42
2023-01-13T12:03:32.115Z,24.05
2023-01-13T12:06:14.724Z,22.17
2023-01-13T12:09:11.919Z,19.20
2023-01-13T12:12:11.776Z,21.65
2023-01-13T12:14:55.409Z,22.65
2023-01-13T12:17:48.231Z,22.83
2023-01-13T12:20:30.037Z,19.75
2023-01-13T12:23:02.631Z,22.63
2023-01-13T12:28:13.162Z,21.05
2023-01-13T12:30:46.851Z,24.98
2023-01-13T12:33:26.444Z,24.38
2023-01-13T12:36:05.199Z,26.35
2023-01-13T12:38:37.885Z,26.15
2023-01-13T12:44:06.376Z,22.83
2023-01-13T12:46:56.934Z,20.55
2023-01-13T12:49:29.294Z,21.25
2023-01-13T12:52:19.856Z,18.15
2023-01-13T12:55:18.868Z,20.33
2023-01-13T12:58:16.969Z,21.55
2023-01-13T13:01:01.942Z,19.75
2023-01-13T13:03:34.681Z,28.50
2023-01-13T13:09:03.261Z,24.60
2023-01-13T13:12:00.243Z,26.98
2023-01-13T13:15:04.761Z,24.35
2023-01-13T13:18:03.517Z,26.98
2023-01-13T13:20:59.041Z,28.25
2023-01-13T13:24:04.731Z,29.95
2023-01-13T13:26:45.666Z,19.60
2023-01-13T13:29:31.717Z,24.75
2023-01-13T13:32:42.192Z,23.52
2023-01-13T13:35:36.398Z,23.25
2023-01-13T13:38:40.717Z,26.05
2023-01-13T13:41:33.040Z,22.35
2023-01-13T13:44:21.493Z,31.70
2023-01-13T13:46:50.284Z,18.95
2023-01-13T13:49:21.188Z,16.05
2023-01-13T13:52:03.248Z,14.27
2023-01-13T13:54:32.523Z,21.02
2023-01-13T13:57:00.969Z,23.42
2023-01-13T13:59:30.944Z,26.33
2023-01-13T14:02:03.628Z,24.05
2023-01-13T14:04:35.414Z,26.75
2023-01-13T14:07:20.621Z,22.67
2023-01-13T14:09:54.134Z,30.40
2023-01-13T14:12:28.384Z,16.77
2023-01-13T14:14:57.534Z,26.58
2023-01-13T14:17:29.266Z,30.05
2023-01-13T14:20:02.473Z,28.05
2023-01-13T14:22:33.072Z,24.90
2023-01-13T14:25:02.676Z,21.58
2023-01-13T14:27:31.957Z,31.77
2023-01-13T14:30:01.979Z,27.40
2023-01-13T14:32:36.358Z,20.20
2023-01-13T14:35:08.233Z,22.65
2023-01-13T14:37:40.836Z,26.60
2023-01-13T14:43:17.763Z,22.20
2023-01-13T14:45:58.217Z,28.83
2023-01-13T14:48:35.434Z,32.75
2023-01-13T14:51:06.541Z,23.90
2023-01-13T14:53:43.281Z,26.65
2023-01-13T14:56:47.022Z,24.73
2023-01-13T14:59:51.761Z,35.33
2023-01-13T15:02:48.768Z,23.95
2023-01-13T15:05:49.147Z,30.13
2023-01-13T15:08:44.562Z,30.13
2023-01-13T15:11:25.213Z,30.00
2023-01-13T15:14:01.108Z,26.10
2023-01-13T15:16:33.861Z,31.40
2023-01-13T15:19:03.390Z,27.73
2023-01-13T15:21:31.678Z,31.75
2023-01-13T15:24:01.271Z,35.90
2023-01-13T15:26:31.144Z,29.40
2023-01-13T15:29:00.955Z,27.67
2023-01-13T15:31:29.976Z,28.70
2023-01-13T15:34:01.551Z,28.08
2023-01-13T15:36:31.738Z,29.92
2023-01-13T15:39:03.044Z,26.20
2023-01-13T15:41:48.931Z,31.23
2023-01-13T15:44:35.950Z,30.58
2023-01-13T15:47:11.040Z,26.15
2023-01-13T15:49:43.904Z,22.70
2023-01-13T15:52:21.470Z,24.52
2023-01-13T15:54:52.284Z,26.98
2023-01-13T15:57:24.688Z,21.88
2023-01-13T16:02:24.468Z,26.60
2023-01-13T16:04:53.762Z,33.67
2023-01-13T16:07:24.480Z,26.08
2023-01-13T16:09:54.230Z,30.42
2023-01-13T16:12:22.440Z,29.33
2023-01-13T16:14:50.605Z,29.77
2023-01-13T16:17:21.859Z,27.27
2023-01-13T16:19:50.594Z,25.60
2023-01-13T16:22:19.797Z,29.02
2023-01-13T16:24:48.665Z,32.67
2023-01-13T16:27:21.140Z,27.38
2023-01-13T16:29:50.859Z,25.88
2023-01-13T16:32:20.758Z,29.77
2023-01-13T16:34:49.075Z,37.95
2023-01-13T16:37:21.683Z,32.25
2023-01-13T16:39:50.298Z,34.42
2023-01-13T16:42:20.044Z,32.28
2023-01-13T16:44:49.701Z,31.83
2023-01-13T16:47:19.548Z,28.05
2023-01-13T16:49:47.990Z,30.77
2023-01-13T16:52:19.214Z,26.98
2023-01-13T16:54:48.771Z,29.80
2023-01-13T16:57:16.970Z,32.20
2023-01-13T16:59:46.566Z,26.58
2023-01-13T17:02:20.177Z,28.73
2023-01-13T17:04:49.235Z,37.45
2023-01-13T17:07:18.930Z,31.88
2023-01-13T17:10:19.941Z,25.40
2023-01-13T17:12:48.314Z,26.23
2023-01-13T17:15:20.305Z,29.85
2023-01-13T17:17:52.056Z,32.63
2023-01-13T17:20:20.770Z,26.77
2023-01-13T17:22:57.734Z,34.85
2023-01-13T17:25:26.442Z,38.55
2023-01-13T17:27:54.695Z,27.90
2023-01-13T17:30:26.387Z,29.73
2023-01-13T17:32:54.786Z,35.00
2023-01-13T17:35:24.939Z,27.83
2023-01-13T17:37:56.389Z,34.17
2023-01-13T17:40:24.749Z,28.55
2023-01-13T17:42:52.911Z,30.75
2023-01-13T17:45:21.118Z,30.38
2023-01-13T17:47:50.745Z,24.17
2023-01-13T17:50:19.572Z,19.90
2023-01-13T17:52:47.784Z,29.33
2023-01-13T17:55:16.218Z,31.50
2023-01-13T17:57:44.334Z,27.17
2023-01-13T18:00:14.060Z,26.67
2023-01-13T18:02:42.341Z,26.40
2023-01-13T18:05:12.666Z,39.63
2023-01-13T18:07:41.009Z,28.98
2023-01-13T18:10:11.666Z,23.77
2023-01-13T18:12:41.988Z,27.88
2023-01-13T18:15:11.277Z,24.60
2023-01-13T18:17:39.452Z,28.88
2023-01-13T18:20:25.690Z,31.00
2023-01-13T18:23:12.962Z,25.00
2023-01-13T18:25:59.259Z,27.27
2023-01-13T18:28:33.900Z,22.58
2023-01-13T18:31:02.750Z,23.73
2023-01-13T18:33:31.329Z,24.83
2023-01-13T18:36:15.767Z,30.95
2023-01-13T18:38:54.227Z,28.42
2023-01-13T18:41:43.297Z,29.92
2023-01-13T18:44:14.108Z,26.70
2023-01-13T18:46:45.533Z,33.15
2023-01-13T18:49:17.337Z,28.17
2023-01-13T18:51:45.786Z,36.30
2023-01-13T18:54:16.110Z,30.08
2023-01-13T18:57:10.597Z,30.00
2023-01-13T18:59:42.675Z,24.20
2023-01-13T19:02:21.654Z,33.08
2023-01-13T19:05:10.985Z,28.25
2023-01-13T19:07:43.917Z,28.70
2023-01-13T19:10:27.734Z,36.00
2023-01-13T19:12:56.350Z,30.63
2023-01-13T19:15:27.470Z,22.42
2023-01-13T19:18:22.076Z,29.92
2023-01-13T19:20:50.755Z,25.65
2023-01-13T19:23:21.934Z,24.80
2023-01-13T19:26:00.664Z,26.88
2023-01-13T19:28:31.843Z,23.98
2023-01-13T19:31:06.898Z,20.73
2023-01-13T19:33:40.939Z,23.50
2023-01-13T19:36:12.352Z,31.73
2023-01-13T19:38:40.721Z,34.15
2023-01-13T19:41:35.654Z,22.98
2023-01-13T19:44:21.556Z,35.10
2023-01-13T19:47:06.840Z,31.02
2023-01-13T19:50:02.888Z,36.45
2023-01-13T19:52:33.516Z,28.92
2023-01-13T19:55:11.844Z,39.70
2023-01-13T19:57:46.551Z,31.38
2023-01-13T20:00:47.007Z,32.67
2023-01-13T20:03:20.607Z,30.77
2023-01-13T20:05:49.416Z,40.08
2023-01-13T20:08:23.886Z,27.73
2023-01-13T20:11:12.590Z,36.42
2023-01-13T20:13:45.287Z,37.78
2023-01-13T20:18:55.400Z,41.55
2023-01-13T20:21:24.786Z,34.97
2023-01-13T20:23:58.406Z,40.57
2023-01-13T20:27:16.008Z,35.38
2023-01-13T20:29:45.924Z,39.80
2023-01-13T20:32:22.376Z,44.05
2023-01-13T20:34:58.420Z,40.10
2023-01-13T20:37:30.808Z,48.70
2023-01-13T20:40:04.177Z,32.78
2023-01-13T20:43:00.671Z,39.45
2023-01-13T20:45:45.650Z,39.63
2023-01-13T20:48:22.032Z,36.00
2023-01-13T20:50:57.903Z,32.17
2023-01-13T20:53:26.362Z,40.33
2023-01-13T20:55:59.347Z,41.42
2023-01-13T20:58:27.839Z,58.20
2023-01-13T21:01:01.640Z,34.72
2023-01-13T21:03:30.184Z,51.58
2023-01-13T21:05:59.204Z,33.58
2023-01-13T21:10:02.715Z,47.47
2023-01-13T21:13:03.160Z,35.83
2023-01-13T21:15:31.563Z,34.88
2023-01-13T21:18:20.751Z,42.55
2023-01-13T21:20:53.003Z,35.60
2023-01-13T21:23:24.253Z,36.00
2023-01-13T21:25:52.661Z,42.70
2023-01-13T21:28:22.744Z,29.73
2023-01-13T21:30:52.771Z,49.15
2023-01-13T21:33:26.747Z,41.47
2023-01-13T21:35:55.173Z,34.97
2023-01-13T21:38:26.762Z,46.53
2023-01-13T21:41:05.503Z,39.95
2023-01-13T21:43:51.766Z,36.80
2023-01-13T21:46:41.761Z,42.15
2023-01-13T21:49:12.087Z,43.35
2023-01-13T21:51:47.798Z,48.92
2023-01-13T21:54:16.144Z,38.78
2023-01-13T21:56:44.654Z,44.67
2023-01-13T21:59:16.358Z,39.65
2023-01-13T22:02:15.645Z,47.70
2023-01-13T22:04:36.960Z,42.67
2023-01-13T22:07:06.527Z,44.17
2023-01-13T22:09:34.891Z,45.97
2023-01-13T22:12:03.256Z,39.72
2023-01-13T22:14:31.826Z,49.55
2023-01-13T22:17:02.606Z,33.55
2023-01-13T22:19:52.537Z,41.63
2023-01-13T22:22:29.098Z,39.97
2023-01-13T22:25:01.325Z,35.78
2023-01-13T22:27:46.265Z,38.50
2023-01-13T22:30:23.046Z,34.47
2023-01-13T22:32:53.795Z,39.72
2023-01-13T22:35:25.561Z,35.00
2023-01-13T22:38:07.777Z,40.40
2023-01-13T22:40:41.895Z,37.25
2023-01-13T22:43:10.397Z,28.23
2023-01-13T22:45:39.069Z,35.40
2023-01-13T22:48:09.816Z,42.85
2023-01-13T22:50:38.167Z,37.08
2023-01-13T22:53:08.275Z,34.47
2023-01-13T22:55:36.856Z,37.03
2023-01-13T22:58:08.443Z,44.88
2023-01-13T23:00:36.902Z,45.10
2023-01-13T23:03:06.905Z,37.00
2023-01-13T23:05:35.418Z,37.67
2023-01-13T23:08:03.880Z,32.78
2023-01-13T23:10:36.241Z,28.92
2023-01-13T23:13:04.551Z,34.33
2023-01-13T23:15:34.977Z,46.78
2023-01-13T23:18:03.602Z,32.25
2023-01-13T23:20:32.371Z,35.92
2023-01-13T23:23:00.692Z,33.40
2023-01-13T23:25:28.982Z,34.72
2023-01-13T23:28:01.346Z,43.85
2023-01-13T23:30:29.688Z,40.38
2023-01-13T23:32:58.026Z,36.08
2023-01-13T23:35:26.768Z,39.17
2023-01-13T23:37:55.349Z,33.60
2023-01-13T23:40:29.798Z,30.05
2023-01-13T23:42:58.062Z,46.20
2023-01-13T23:45:27.795Z,32.58
2023-01-13T23:47:56.034Z,35.85
2023-01-13T23:50:26.353Z,39.53
2023-01-13T23:52:54.833Z,33.30
2023-01-13T23:55:26.309Z,35.55
2023-01-13T23:57:54.687Z,35.00
